»·PEaware :: N180D KVNY-KSNA

N180D :: KVNY-KSNA

FLIGHT INFORMATION

Flight Status: Arrived
Operator: Privately registered:
United States
More flights under this callsign
Pilot: Augie L. (30054)
Aircraft: PIPER PA-31/31P NAVAJO CHIEFTAIN
(PA31)
More flights by this aircraft type
Origin: KVNY Van Nuys
United States
Destination: KSNA John Wayne-Orange Co
United States
More flights between these airports :: More routes between these airports
Route: +ADAMM3 ADAMM V186 BAYJY V363 POXKU V8 SLI+
File this flight plan on PilotEdge
Remarks:
Altitude:
(Current/Filed)
5,000ft
Speed:
(Current/Filed)
160kts
Departed: 30-Nov-20 12:50 PM
Arrived: 30-Nov-20 01:24 PM
Distance/Time
Traveled:
44nm/0:34
Distance/Time
To Go:
Arrived

Flight Plot

Page will automatically refresh every two minutes.

Flight plan parsing failed; only flown route is shown


Map Options




Map Legend


Flown Route
Filed Route
Departure Airport
Arrival Airport
Navaid (VOR, NDB)
Fix

Horizontal Profiles

Position Reports

Time Latitude Longitude Heading Altitude Ground
Speed
30-Nov-20 12:24 34.202981 -118.491573 0 806ft 0kts
30-Nov-20 12:25 34.202981 -118.491573 0 806ft 0kts
30-Nov-20 12:26 34.202981 -118.491573 0 806ft 0kts
30-Nov-20 12:27 34.202981 -118.491573 0 806ft 0kts
30-Nov-20 12:28 34.202981 -118.491573 0 806ft 0kts
30-Nov-20 12:29 34.202981 -118.491573 0 806ft 0kts
30-Nov-20 12:30 34.202981 -118.491573 0 806ft 0kts
30-Nov-20 12:31 34.202981 -118.491573 0 806ft 0kts
30-Nov-20 12:32 34.202981 -118.491573 0 806ft 0kts
30-Nov-20 12:33 34.202981 -118.491573 0 806ft 0kts
30-Nov-20 12:34 34.202981 -118.491573 0 806ft 0kts
30-Nov-20 12:34 34.202981 -118.491573 0 806ft 0kts
30-Nov-20 12:36 34.202981 -118.491573 0 806ft 0kts
30-Nov-20 12:37 34.202981 -118.491573 0 806ft 0kts
30-Nov-20 12:37 34.202981 -118.491573 0 806ft 0kts
30-Nov-20 12:38 34.202981 -118.491573 0 806ft 0kts
30-Nov-20 12:39 34.202981 -118.491573 0 806ft 0kts
30-Nov-20 12:41 34.202981 -118.491573 0 806ft 0kts
30-Nov-20 12:41 34.202981 -118.491573 0 806ft 0kts
30-Nov-20 12:42 34.202981 -118.491573 0 806ft 0kts
30-Nov-20 12:43 34.202981 -118.491573 0 806ft 0kts
30-Nov-20 12:44 34.202986 -118.491573 0 806ft 1kts
30-Nov-20 12:45 34.202975 -118.490894 150 806ft 0kts
30-Nov-20 12:46 34.198174 -118.490110 176 806ft 19kts
30-Nov-20 12:47 34.197027 -118.489931 97 806ft 0kts
30-Nov-20 12:48 34.197544 -118.489222 351 806ft 5kts
30-Nov-20 12:49 34.218085 -118.491536 342 1680ft 129kts
30-Nov-20 12:50 34.225140 -118.538905 266 3307ft 174kts
30-Nov-20 12:51 34.220859 -118.598447 266 4924ft 182kts
30-Nov-20 12:52 34.200476 -118.648319 172 5005ft 197kts
30-Nov-20 12:53 34.181170 -118.591818 85 5045ft 188kts
30-Nov-20 12:54 34.188715 -118.530354 93 5051ft 191kts
30-Nov-20 12:55 34.177611 -118.466309 104 5050ft 196kts
30-Nov-20 12:56 34.162486 -118.402901 105 5050ft 196kts
30-Nov-20 12:57 34.147005 -118.339755 105 5050ft 196kts
30-Nov-20 12:58 34.131484 -118.276750 106 5051ft 196kts
30-Nov-20 12:59 34.115767 -118.213124 106 5053ft 198kts
30-Nov-20 13:00 34.099997 -118.149439 106 5055ft 196kts
30-Nov-20 13:01 34.084465 -118.086807 106 5058ft 194kts
30-Nov-20 13:02 34.068850 -118.024071 105 5061ft 194kts
30-Nov-20 13:03 34.053319 -117.961768 105 5063ft 193kts
30-Nov-20 13:04 34.037827 -117.899749 105 5064ft 193kts
30-Nov-20 13:05 34.022316 -117.837807 105 5064ft 192kts
30-Nov-20 13:06 33.993711 -117.787509 166 5043ft 197kts
30-Nov-20 13:07 33.938631 -117.782870 177 4365ft 196kts
30-Nov-20 13:08 33.888954 -117.782117 181 4043ft 167kts
30-Nov-20 13:09 33.844719 -117.791038 228 4052ft 158kts
30-Nov-20 13:10 33.830909 -117.842629 255 3966ft 165kts
30-Nov-20 13:11 33.840883 -117.886812 354 4025ft 169kts
30-Nov-20 13:12 33.884457 -117.870063 41 4020ft 166kts
30-Nov-20 13:13 33.897504 -117.824154 90 3954ft 145kts
30-Nov-20 13:14 33.906606 -117.778978 66 3981ft 132kts
30-Nov-20 13:15 33.889709 -117.749409 180 3639ft 137kts
30-Nov-20 13:16 33.851224 -117.759781 205 3045ft 146kts
30-Nov-20 13:17 33.813696 -117.781417 208 3031ft 158kts
30-Nov-20 13:18 33.782097 -117.801583 208 2344ft 105kts
30-Nov-20 13:19 33.757211 -117.816108 209 1903ft 100kts
30-Nov-20 13:20 33.734629 -117.831913 207 1523ft 90kts
30-Nov-20 13:21 33.712588 -117.845046 213 857ft 85kts
30-Nov-20 13:22 33.692075 -117.858263 209 357ft 84kts
30-Nov-20 13:23 33.675786 -117.869378 291 60ft 24kts
30-Nov-20 13:25 33.676380 -117.870839 256 60ft 3kts

Navigation Log

Ident Type
Flight plan parsing failed, navigation log unavailable